Plainfield, Wisconsin
Current Conditions -  °F | °C
As of 10:56 AM on Monday 22 Dec 2014 (Local Time) from KY50 Reporting Station
Haze Haze  
Wind Chill: 31°   Ceiling: 3100
Heat Index: 36°   Visibility: 5mi
Dew Point: 33°   Wind: 6mph
Humidity: 89%   Direction: 120°ESE
Pressure: 29.83"   Gusts: NA
Location:  44.21°N, 89.49°W
Report Text: KY50 221656Z AUTO 12005KT 5SM BR FEW010 BKN031 OVC060 02/01 A2983 RMK AO2 TSNO T00220005 BKN V SCT SLP107
Loading
Personal Weather Stations






























Interactive Weather Map New forecast layout! Learn more

10-Day Weather Forecast

Advertisements
Track Severe Weather on mobile